Terminal Aerodrome Forecast
Issued by NWS Sterling, VA

Home | Current Version | Previous Version | Text Only | Print | Product List | Glossary On
Versions: 1 2 3 4 5 6 7 8 9 10 11 12 13 14 15 16 17 18 19 20 21
000
FTUS41 KLWX 171737
TAFCHO
TAF
KCHO 171737Z 1718/1818 18006KT 3SM BR OVC005
     FM171900 20009KT 3SM BR OVC015
     FM172100 20009KT P6SM OVC020
     FM180000 20009KT 3SM BR OVC020
     FM180600 22006KT 2SM BR SCT250
     FM181200 26005KT P6SM SCT040
     FM181700 30010KT P6SM SCT250=

USA.gov is the U.S. government's official web portal to all federal, state and local government web resources and services.